createdAt,value
2023-02-01T00:00:47.990Z,1.42
2023-02-01T00:01:51.342Z,1.38
2023-02-01T00:02:59.876Z,1.77
2023-02-01T00:04:10.912Z,1.48
2023-02-01T00:05:27.822Z,1.75
2023-02-01T00:06:30.477Z,2.40
2023-02-01T00:07:33.951Z,1.23
2023-02-01T00:08:46.263Z,1.60
2023-02-01T00:09:49.571Z,1.70
2023-02-01T00:10:59.748Z,1.58
2023-02-01T00:12:04.367Z,1.50
2023-02-01T00:13:07.278Z,1.52
2023-02-01T00:14:16.860Z,2.03
2023-02-01T00:15:19.413Z,1.52
2023-02-01T00:16:24.229Z,1.70
2023-02-01T00:17:26.769Z,1.70
2023-02-01T00:18:30.164Z,1.38
2023-02-01T00:19:40.829Z,1.40
2023-02-01T00:20:47.949Z,1.40
2023-02-01T00:21:50.335Z,1.48
2023-02-01T00:22:53.681Z,1.60
2023-02-01T00:23:56.166Z,1.42
2023-02-01T00:25:06.327Z,1.90
2023-02-01T00:26:10.686Z,1.85
2023-02-01T00:27:18.559Z,1.20
2023-02-01T00:28:21.956Z,1.17
2023-02-01T00:29:24.449Z,1.55
2023-02-01T00:30:35.909Z,1.20
2023-02-01T00:31:38.534Z,1.38
2023-02-01T00:32:41.872Z,1.50
2023-02-01T00:33:51.082Z,1.48
2023-02-01T00:34:55.727Z,1.65
2023-02-01T00:36:05.948Z,1.25
2023-02-01T00:37:09.399Z,1.52
2023-02-01T00:38:11.951Z,1.80
2023-02-01T00:39:15.542Z,1.40
2023-02-01T00:40:24.869Z,1.40
2023-02-01T00:41:28.889Z,1.88
2023-02-01T00:42:38.871Z,1.60
2023-02-01T00:43:42.914Z,1.13
2023-02-01T00:44:45.576Z,1.50
2023-02-01T00:45:49.255Z,1.65
2023-02-01T00:46:52.724Z,1.33
2023-02-01T00:48:01.883Z,1.85
2023-02-01T00:49:05.372Z,1.60
2023-02-01T00:50:09.643Z,1.20
2023-02-01T00:51:14.229Z,1.83
2023-02-01T00:52:16.807Z,1.30
2023-02-01T00:53:26.905Z,1.23
2023-02-01T00:54:29.483Z,1.42
2023-02-01T00:55:32.878Z,1.00
2023-02-01T00:56:35.381Z,1.08
2023-02-01T00:57:38.827Z,1.48
2023-02-01T00:58:48.871Z,1.40
2023-02-01T00:59:52.335Z,1.58
2023-02-01T01:01:02.534Z,1.52
2023-02-01T01:02:06.097Z,1.85
2023-02-01T01:03:18.691Z,1.40
2023-02-01T01:04:35.876Z,1.10
2023-02-01T01:05:46.101Z,1.70
2023-02-01T01:06:49.550Z,1.25
2023-02-01T01:07:52.052Z,1.70
2023-02-01T01:08:55.889Z,1.77
2023-02-01T01:10:04.851Z,1.70
2023-02-01T01:11:09.054Z,1.45
2023-02-01T01:12:12.538Z,1.58
2023-02-01T01:13:21.848Z,1.67
2023-02-01T01:14:31.850Z,1.63
2023-02-01T01:15:37.655Z,1.80
2023-02-01T01:16:41.283Z,1.50
2023-02-01T01:17:46.862Z,1.75
2023-02-01T01:18:56.860Z,1.38
2023-02-01T01:20:00.051Z,1.50
2023-02-01T01:21:06.525Z,1.42
2023-02-01T01:22:09.125Z,1.58
2023-02-01T01:23:12.651Z,1.50
2023-02-01T01:24:22.873Z,1.20
2023-02-01T01:25:25.435Z,1.20
2023-02-01T01:26:29.993Z,1.75
2023-02-01T01:27:39.191Z,1.48
2023-02-01T01:28:48.855Z,1.90
2023-02-01T01:29:51.440Z,1.63
2023-02-01T01:31:02.068Z,1.73
2023-02-01T01:32:04.772Z,1.77
2023-02-01T01:33:09.334Z,1.20
2023-02-01T01:34:11.824Z,1.60
2023-02-01T01:35:15.264Z,2.05
2023-02-01T01:36:25.859Z,1.30
2023-02-01T01:37:29.263Z,1.50
2023-02-01T01:38:31.763Z,1.13
2023-02-01T01:39:35.220Z,1.63
2023-02-01T01:40:37.890Z,2.00
2023-02-01T01:41:47.854Z,1.10
2023-02-01T01:42:54.309Z,1.42
2023-02-01T01:43:58.734Z,1.50
2023-02-01T01:45:04.727Z,2.03
2023-02-01T01:46:14.889Z,1.63
2023-02-01T01:47:24.878Z,1.50
2023-02-01T01:48:30.345Z,2.08
2023-02-01T01:49:32.864Z,1.25
2023-02-01T01:50:39.539Z,1.73
2023-02-01T01:51:51.897Z,1.63
2023-02-01T01:52:57.770Z,1.42
2023-02-01T01:54:02.960Z,1.40
2023-02-01T01:55:06.896Z,1.90
2023-02-01T01:56:09.632Z,1.30
2023-02-01T01:57:20.929Z,2.25
2023-02-01T01:58:26.476Z,1.50
2023-02-01T01:59:30.116Z,1.48
2023-02-01T02:00:32.799Z,1.30
2023-02-01T02:01:36.316Z,1.88
2023-02-01T02:02:45.905Z,1.77
2023-02-01T02:03:56.019Z,2.28
2023-02-01T02:05:05.864Z,1.63
2023-02-01T02:06:15.762Z,1.50
2023-02-01T02:07:28.848Z,1.77
2023-02-01T02:08:32.283Z,1.45
2023-02-01T02:09:34.808Z,2.10
2023-02-01T02:10:57.097Z,1.75
2023-02-01T02:12:06.892Z,1.50
2023-02-01T02:13:09.469Z,1.55
2023-02-01T02:14:14.550Z,2.33
2023-02-01T02:15:17.629Z,1.77
2023-02-01T02:16:34.004Z,1.92
2023-02-01T02:17:45.897Z,2.00
2023-02-01T02:18:53.373Z,1.75
2023-02-01T02:20:14.540Z,1.48
2023-02-01T02:21:20.688Z,1.95
2023-02-01T02:22:44.893Z,1.42
2023-02-01T02:24:05.940Z,1.35
2023-02-01T02:25:32.877Z,1.35
2023-02-01T02:26:54.556Z,2.00
2023-02-01T02:28:00.745Z,1.95
2023-02-01T02:29:30.866Z,1.83
2023-02-01T02:30:42.587Z,1.38
2023-02-01T02:31:57.632Z,1.88
2023-02-01T02:33:18.615Z,1.98
2023-02-01T02:34:33.912Z,1.60
2023-02-01T02:35:42.368Z,1.65
2023-02-01T02:36:50.129Z,1.33
2023-02-01T02:37:55.259Z,1.75
2023-02-01T02:39:05.316Z,1.20
2023-02-01T02:40:20.401Z,1.67
2023-02-01T02:41:45.988Z,1.42
2023-02-01T02:43:10.379Z,1.52
2023-02-01T02:44:34.030Z,1.60
2023-02-01T02:46:04.875Z,1.90
2023-02-01T02:47:30.924Z,1.50
2023-02-01T02:48:39.870Z,1.83
2023-02-01T02:50:05.853Z,1.70
2023-02-01T02:51:34.877Z,1.77
2023-02-01T02:52:59.202Z,1.33
2023-02-01T02:54:22.874Z,1.33
2023-02-01T02:55:28.110Z,1.17
2023-02-01T02:56:56.913Z,1.40
2023-02-01T02:58:18.836Z,0.95
2023-02-01T02:59:41.618Z,0.85
2023-02-01T03:01:02.868Z,0.90
2023-02-01T03:02:31.043Z,1.48
2023-02-01T03:03:51.945Z,1.20
2023-02-01T03:05:03.062Z,2.47
2023-02-01T03:06:06.735Z,1.30
2023-02-01T03:07:17.395Z,2.22
2023-02-01T03:08:27.882Z,1.15
2023-02-01T03:09:34.081Z,1.42
2023-02-01T03:10:40.758Z,1.52
2023-02-01T03:12:04.877Z,1.25
2023-02-01T03:13:17.891Z,1.58
2023-02-01T03:14:22.458Z,1.38
2023-02-01T03:15:27.538Z,1.17
2023-02-01T03:16:34.852Z,1.63
2023-02-01T03:17:39.761Z,1.50
2023-02-01T03:18:52.920Z,1.55
2023-02-01T03:19:57.805Z,1.58
2023-02-01T03:21:04.568Z,1.85
2023-02-01T03:22:09.123Z,2.42
2023-02-01T03:23:14.580Z,2.88
2023-02-01T03:24:25.978Z,1.90
2023-02-01T03:25:30.852Z,2.10
2023-02-01T03:26:36.964Z,2.67
2023-02-01T03:27:43.070Z,1.52
2023-02-01T03:28:47.593Z,1.90
2023-02-01T03:29:58.871Z,2.10
2023-02-01T03:31:01.558Z,1.65
2023-02-01T03:32:05.165Z,2.10
2023-02-01T03:33:14.820Z,1.98
2023-02-01T03:34:18.288Z,2.13
2023-02-01T03:35:31.940Z,1.60
2023-02-01T03:36:38.973Z,1.60
2023-02-01T03:37:41.525Z,1.50
2023-02-01T03:38:48.994Z,1.27
2023-02-01T03:39:55.127Z,1.90
2023-02-01T03:41:05.882Z,1.85
2023-02-01T03:42:11.230Z,1.58
2023-02-01T03:43:17.684Z,1.38
2023-02-01T03:44:22.653Z,0.95
2023-02-01T03:45:29.135Z,1.10
2023-02-01T03:46:40.930Z,0.60
2023-02-01T03:47:52.885Z,0.40
2023-02-01T03:48:56.201Z,1.20
2023-02-01T03:50:01.876Z,1.15
2023-02-01T03:51:07.310Z,0.73
2023-02-01T03:52:13.155Z,1.13
2023-02-01T03:53:23.945Z,1.00
2023-02-01T03:54:28.619Z,1.60
2023-02-01T03:55:31.963Z,0.90
2023-02-01T03:56:37.309Z,0.90
2023-02-01T03:57:42.026Z,1.08
2023-02-01T03:59:05.865Z,1.00
2023-02-01T04:00:11.082Z,0.80
2023-02-01T04:01:13.606Z,1.10
2023-02-01T04:02:17.080Z,1.13
2023-02-01T04:03:25.910Z,1.05
2023-02-01T04:04:49.855Z,1.02
2023-02-01T04:05:52.848Z,1.15
2023-02-01T04:06:57.716Z,0.95
2023-02-01T04:08:00.324Z,1.15
2023-02-01T04:09:10.861Z,1.42
2023-02-01T04:10:13.777Z,1.15
2023-02-01T04:11:17.332Z,2.00
2023-02-01T04:12:19.828Z,1.58
2023-02-01T04:13:29.930Z,1.58
2023-02-01T04:14:33.396Z,1.63
2023-02-01T04:15:36.024Z,2.20
2023-02-01T04:16:39.531Z,2.08
2023-02-01T04:17:42.131Z,1.70
2023-02-01T04:19:59.910Z,1.58
2023-02-01T04:21:03.950Z,1.98
2023-02-01T04:22:07.744Z,2.17
2023-02-01T04:23:11.242Z,2.00
2023-02-01T04:24:20.879Z,2.45
2023-02-01T04:25:23.478Z,1.50
2023-02-01T04:26:27.063Z,1.77
2023-02-01T04:27:29.639Z,2.30
2023-02-01T04:28:33.422Z,2.22
2023-02-01T04:29:42.882Z,2.50
2023-02-01T04:30:54.979Z,2.65
2023-02-01T04:31:58.460Z,2.58
2023-02-01T04:33:01.009Z,2.60
2023-02-01T04:34:04.463Z,2.75
2023-02-01T04:35:13.935Z,2.00
2023-02-01T04:36:20.676Z,2.28
2023-02-01T04:37:25.560Z,3.20
2023-02-01T04:38:30.465Z,2.75
2023-02-01T04:39:33.865Z,3.03
2023-02-01T04:40:45.198Z,2.33
2023-02-01T04:41:48.689Z,2.47
2023-02-01T04:42:51.257Z,1.75
2023-02-01T04:43:54.697Z,1.48
2023-02-01T04:44:57.180Z,2.30
2023-02-01T04:46:06.965Z,1.77
2023-02-01T04:47:10.558Z,1.80
2023-02-01T04:48:14.002Z,2.05
2023-02-01T04:49:16.563Z,1.60
2023-02-01T04:50:21.671Z,1.58
2023-02-01T04:51:30.856Z,1.70
2023-02-01T04:52:35.599Z,1.48
2023-02-01T04:53:38.285Z,1.92
2023-02-01T04:54:41.718Z,2.40
2023-02-01T04:55:44.217Z,2.17
2023-02-01T04:56:53.871Z,2.92
2023-02-01T04:58:03.864Z,2.05
2023-02-01T04:59:07.922Z,2.53
2023-02-01T05:00:11.569Z,2.95
2023-02-01T05:01:15.014Z,2.30
2023-02-01T05:02:17.492Z,2.38
2023-02-01T05:03:27.893Z,1.85
2023-02-01T05:04:50.933Z,2.22
2023-02-01T05:05:54.827Z,1.98
2023-02-01T05:06:57.332Z,2.00
2023-02-01T05:08:08.886Z,1.80
2023-02-01T05:09:11.393Z,1.85
2023-02-01T05:10:22.296Z,1.67
2023-02-01T05:11:43.461Z,1.60
2023-02-01T05:13:04.944Z,1.58
2023-02-01T05:14:14.906Z,1.30
2023-02-01T05:15:17.436Z,1.33
2023-02-01T05:16:21.011Z,0.65
2023-02-01T05:17:23.511Z,1.10
2023-02-01T05:18:27.021Z,1.42
2023-02-01T05:19:35.909Z,1.42
2023-02-01T05:20:45.905Z,0.80
2023-02-01T05:21:48.500Z,1.20
2023-02-01T05:22:52.012Z,1.55
2023-02-01T05:24:20.954Z,1.33
2023-02-01T05:25:24.438Z,1.58
2023-02-01T05:26:27.395Z,1.00
2023-02-01T05:27:37.939Z,1.55
2023-02-01T05:28:41.373Z,1.77
2023-02-01T05:29:44.850Z,1.40
2023-02-01T05:30:47.462Z,1.42
2023-02-01T05:31:51.246Z,1.17
2023-02-01T05:33:01.901Z,1.50
2023-02-01T05:34:04.590Z,2.10
2023-02-01T05:35:14.885Z,1.75
2023-02-01T05:36:17.493Z,1.40
2023-02-01T05:37:21.260Z,2.15
2023-02-01T05:38:23.761Z,1.45
2023-02-01T05:39:34.891Z,1.27
2023-02-01T05:40:37.432Z,1.15
2023-02-01T05:41:41.981Z,1.20
2023-02-01T05:42:44.607Z,1.10
2023-02-01T05:43:48.435Z,1.45
2023-02-01T05:44:57.979Z,1.33
2023-02-01T05:46:01.672Z,1.40
2023-02-01T05:47:05.105Z,1.20
2023-02-01T05:48:07.572Z,1.50
2023-02-01T05:49:11.077Z,1.55
2023-02-01T05:50:19.997Z,1.50
2023-02-01T05:51:23.611Z,1.92
2023-02-01T05:52:26.152Z,2.05
2023-02-01T05:53:29.630Z,1.63
2023-02-01T05:54:33.742Z,1.77
2023-02-01T05:55:43.910Z,2.28
2023-02-01T05:56:46.426Z,2.00
2023-02-01T05:57:49.876Z,2.28
2023-02-01T05:58:52.394Z,2.53
2023-02-01T05:59:55.865Z,2.25
2023-02-01T06:01:06.879Z,2.63
2023-02-01T06:02:17.884Z,3.00
2023-02-01T06:03:21.655Z,2.30
2023-02-01T06:04:44.977Z,2.70
2023-02-01T06:05:49.015Z,2.78
2023-02-01T06:06:57.901Z,2.65
2023-02-01T06:08:01.386Z,3.20
2023-02-01T06:09:03.839Z,2.63
2023-02-01T06:10:09.255Z,3.58
2023-02-01T06:11:31.813Z,1.83
2023-02-01T06:12:36.211Z,3.08
2023-02-01T06:13:39.681Z,2.60
2023-02-01T06:14:44.365Z,3.22
2023-02-01T06:15:47.053Z,2.70
2023-02-01T06:16:56.880Z,2.80
2023-02-01T06:18:05.893Z,2.13
2023-02-01T06:19:09.946Z,2.67
2023-02-01T06:20:13.025Z,2.70
2023-02-01T06:21:24.589Z,2.85
2023-02-01T06:22:28.057Z,2.88
2023-02-01T06:23:37.875Z,2.33
2023-02-01T06:24:41.930Z,2.53
2023-02-01T06:25:46.158Z,1.90
2023-02-01T06:26:49.693Z,2.13
2023-02-01T06:27:52.192Z,2.67
2023-02-01T06:29:02.860Z,2.38
2023-02-01T06:30:05.637Z,2.20
2023-02-01T06:31:09.767Z,3.42
2023-02-01T06:32:12.464Z,2.72
2023-02-01T06:33:16.891Z,2.30
2023-02-01T06:34:25.909Z,2.13
2023-02-01T06:35:29.455Z,1.92
2023-02-01T06:36:32.946Z,2.42
2023-02-01T06:37:35.390Z,3.53
2023-02-01T06:38:39.845Z,2.60
2023-02-01T06:39:48.957Z,2.90
2023-02-01T06:40:56.366Z,1.80
2023-02-01T06:41:58.890Z,2.20
2023-02-01T06:43:02.321Z,1.80
2023-02-01T06:44:10.934Z,2.08
2023-02-01T06:45:14.330Z,2.30
2023-02-01T06:46:16.979Z,1.20
2023-02-01T06:47:20.432Z,2.45
2023-02-01T06:48:22.952Z,2.63
2023-02-01T06:49:32.910Z,2.05
2023-02-01T06:50:36.198Z,2.28
2023-02-01T06:51:39.590Z,2.85
2023-02-01T06:52:42.084Z,3.08
2023-02-01T06:53:51.908Z,2.30
2023-02-01T06:54:54.360Z,2.05
2023-02-01T06:56:00.242Z,2.90
2023-02-01T06:57:03.650Z,2.70
2023-02-01T06:58:06.137Z,2.88
2023-02-01T06:59:17.501Z,3.00
2023-02-01T07:00:28.216Z,2.63
2023-02-01T07:01:30.760Z,3.45
2023-02-01T07:02:34.241Z,3.00
2023-02-01T07:03:36.840Z,2.00
2023-02-01T07:04:46.885Z,2.47
2023-02-01T07:06:05.912Z,2.92
2023-02-01T07:07:09.303Z,3.35
2023-02-01T07:08:18.159Z,3.60
2023-02-01T07:09:21.922Z,2.70
2023-02-01T07:10:24.934Z,4.18
2023-02-01T07:11:36.025Z,3.10
2023-02-01T07:12:38.643Z,3.15
2023-02-01T07:13:42.540Z,2.85
2023-02-01T07:14:51.884Z,3.28
2023-02-01T07:15:55.390Z,2.40
2023-02-01T07:16:58.785Z,2.35
2023-02-01T07:18:07.903Z,2.97
2023-02-01T07:19:11.359Z,3.20
2023-02-01T07:20:13.912Z,3.08
2023-02-01T07:21:23.871Z,2.58
2023-02-01T07:22:26.425Z,3.13
2023-02-01T07:23:36.926Z,2.28
2023-02-01T07:24:40.620Z,2.70
2023-02-01T07:25:44.032Z,2.45
2023-02-01T07:26:52.035Z,3.15
2023-02-01T07:28:01.879Z,2.28
2023-02-01T07:29:05.671Z,3.20
2023-02-01T07:30:08.675Z,4.30
2023-02-01T07:31:13.127Z,2.65
2023-02-01T07:32:19.228Z,2.92
2023-02-01T07:33:29.896Z,3.40
2023-02-01T07:34:40.912Z,3.47
2023-02-01T07:35:43.549Z,3.50
2023-02-01T07:36:46.914Z,2.92
2023-02-01T07:37:49.382Z,3.38
2023-02-01T07:39:00.351Z,2.88
2023-02-01T07:40:03.773Z,3.00
2023-02-01T07:41:09.029Z,4.00
2023-02-01T07:42:12.845Z,3.55
2023-02-01T07:43:16.496Z,3.15
2023-02-01T07:44:29.901Z,2.85
2023-02-01T07:45:35.876Z,3.15
2023-02-01T07:46:40.791Z,3.30
2023-02-01T07:47:44.262Z,4.88
2023-02-01T07:48:47.670Z,3.03
2023-02-01T07:49:56.914Z,3.80
2023-02-01T07:51:00.929Z,6.05
2023-02-01T07:52:04.381Z,5.18
2023-02-01T07:53:06.879Z,3.35
2023-02-01T07:54:10.271Z,3.85
2023-02-01T07:55:18.922Z,2.97
2023-02-01T07:56:23.964Z,6.22
2023-02-01T07:57:28.109Z,2.70
2023-02-01T07:58:31.536Z,5.22
2023-02-01T07:59:35.044Z,5.35
2023-02-01T08:01:03.120Z,6.75
2023-02-01T08:02:05.935Z,7.15
2023-02-01T08:03:09.362Z,4.35
2023-02-01T08:04:14.009Z,8.38
2023-02-01T08:05:29.937Z,7.30
2023-02-01T08:06:40.229Z,6.22
2023-02-01T08:07:42.723Z,4.68
2023-02-01T08:08:47.769Z,11.75
2023-02-01T08:09:51.185Z,6.28
2023-02-01T08:11:01.910Z,3.83
2023-02-01T08:12:05.396Z,3.60
2023-02-01T08:13:09.171Z,2.92
2023-02-01T08:14:12.645Z,2.83
2023-02-01T08:15:22.911Z,3.38
2023-02-01T08:16:33.923Z,3.60
2023-02-01T08:17:36.420Z,2.83
2023-02-01T08:18:40.193Z,3.47
2023-02-01T08:19:42.690Z,3.25
2023-02-01T08:20:46.902Z,3.47
2023-02-01T08:21:57.054Z,2.90
2023-02-01T08:23:00.467Z,3.22
2023-02-01T08:24:03.873Z,3.25
2023-02-01T08:25:06.751Z,2.90
2023-02-01T08:26:11.392Z,4.07
2023-02-01T08:27:20.921Z,2.80
2023-02-01T08:28:25.627Z,3.70
2023-02-01T08:29:28.125Z,2.72
2023-02-01T08:30:31.544Z,3.72
2023-02-01T08:31:35.172Z,3.00
2023-02-01T08:32:44.892Z,3.00
2023-02-01T08:33:52.107Z,3.17
2023-02-01T08:34:54.732Z,3.50
2023-02-01T08:35:58.120Z,4.38
2023-02-01T08:37:08.952Z,3.35
2023-02-01T08:38:12.746Z,3.08
2023-02-01T08:39:16.230Z,3.17
2023-02-01T08:40:20.244Z,2.70
2023-02-01T08:41:24.486Z,3.17
2023-02-01T08:42:52.536Z,3.78
2023-02-01T08:43:57.761Z,2.80
2023-02-01T08:45:00.358Z,3.40
2023-02-01T08:46:03.833Z,3.10
2023-02-01T08:47:07.279Z,3.60
2023-02-01T08:48:16.875Z,3.63
2023-02-01T08:49:26.877Z,2.75
2023-02-01T08:50:30.294Z,2.83
2023-02-01T08:51:33.724Z,3.05
2023-02-01T08:52:38.099Z,3.40
2023-02-01T08:53:48.962Z,3.63
2023-02-01T08:54:51.502Z,2.75
2023-02-01T08:55:54.881Z,3.25
2023-02-01T08:56:57.564Z,3.33
2023-02-01T08:58:01.020Z,3.42
2023-02-01T08:59:11.952Z,4.18
2023-02-01T09:00:18.278Z,3.30
2023-02-01T09:01:21.755Z,3.63
2023-02-01T09:02:24.292Z,3.08
2023-02-01T09:03:27.752Z,3.40
2023-02-01T09:04:37.936Z,3.28
2023-02-01T09:05:50.097Z,3.22
2023-02-01T09:06:59.142Z,3.38
2023-02-01T09:08:02.562Z,3.30
2023-02-01T09:09:05.170Z,2.10
2023-02-01T09:10:18.924Z,3.30
2023-02-01T09:11:24.662Z,2.20
2023-02-01T09:12:27.402Z,2.53
2023-02-01T09:13:34.791Z,2.30
2023-02-01T09:14:39.078Z,2.40
2023-02-01T09:15:48.923Z,2.25
2023-02-01T09:16:59.232Z,2.28
2023-02-01T09:18:03.021Z,2.13
2023-02-01T09:19:24.755Z,2.47
2023-02-01T09:20:37.040Z,2.33
2023-02-01T09:21:40.819Z,2.70
2023-02-01T09:22:50.056Z,2.40
2023-02-01T09:23:53.785Z,2.40
2023-02-01T09:24:57.245Z,2.42
2023-02-01T09:26:06.911Z,2.00
2023-02-01T09:27:10.761Z,2.50
2023-02-01T09:28:14.446Z,2.83
2023-02-01T09:29:17.192Z,2.67
2023-02-01T09:30:22.419Z,2.30
2023-02-01T09:31:32.186Z,2.58
2023-02-01T09:32:35.752Z,2.60
2023-02-01T09:33:39.171Z,3.05
2023-02-01T09:34:41.652Z,2.60
2023-02-01T09:35:45.076Z,3.03
2023-02-01T09:36:53.918Z,2.83
2023-02-01T09:37:57.601Z,3.40
2023-02-01T09:39:00.253Z,2.67
2023-02-01T09:40:05.211Z,2.58
2023-02-01T09:41:10.858Z,2.63
2023-02-01T09:42:25.945Z,2.83
2023-02-01T09:43:41.142Z,2.92
2023-02-01T09:44:51.899Z,2.83
2023-02-01T09:46:02.194Z,2.45
2023-02-01T09:47:05.123Z,2.70
2023-02-01T09:48:20.283Z,2.33
2023-02-01T09:49:25.444Z,3.00
2023-02-01T09:50:32.556Z,2.78
2023-02-01T09:51:38.343Z,2.42
2023-02-01T09:52:45.711Z,2.58
2023-02-01T09:53:57.920Z,2.30
2023-02-01T09:55:03.815Z,2.47
2023-02-01T09:56:09.502Z,2.55
2023-02-01T09:57:16.531Z,2.33
2023-02-01T09:58:22.753Z,2.05
2023-02-01T09:59:43.946Z,1.95
2023-02-01T10:00:50.981Z,2.03
2023-02-01T10:01:55.931Z,1.88
2023-02-01T10:02:59.746Z,2.13
2023-02-01T10:04:05.654Z,1.73
2023-02-01T10:05:28.971Z,2.28
2023-02-01T10:06:44.158Z,2.03
2023-02-01T10:07:52.087Z,2.28
2023-02-01T10:09:02.113Z,1.83
2023-02-01T10:10:08.830Z,2.25
2023-02-01T10:11:28.923Z,2.65
2023-02-01T10:12:50.040Z,2.80
2023-02-01T10:13:58.170Z,2.63
2023-02-01T10:15:03.192Z,3.05
2023-02-01T10:16:22.144Z,2.65
2023-02-01T10:17:40.128Z,3.33
2023-02-01T10:18:49.305Z,2.10
2023-02-01T10:19:59.144Z,2.85
2023-02-01T10:21:05.459Z,2.83
2023-02-01T10:22:17.915Z,2.72
2023-02-01T10:23:36.878Z,2.25
2023-02-01T10:24:44.996Z,2.60
2023-02-01T10:25:55.482Z,2.92
2023-02-01T10:27:02.832Z,3.83
2023-02-01T10:28:12.926Z,2.42
2023-02-01T10:29:18.690Z,3.20
2023-02-01T10:30:23.557Z,3.08
2023-02-01T10:31:35.042Z,1.85
2023-02-01T10:32:48.936Z,1.83
2023-02-01T10:34:00.128Z,1.88
2023-02-01T10:35:04.632Z,2.15
2023-02-01T10:36:13.757Z,1.58
2023-02-01T10:37:21.025Z,1.95
2023-02-01T10:38:36.942Z,2.22
2023-02-01T10:39:40.445Z,2.00
2023-02-01T10:40:44.138Z,1.85
2023-02-01T10:41:46.706Z,1.80
2023-02-01T10:42:50.541Z,2.05
2023-02-01T10:44:01.952Z,1.80
2023-02-01T10:45:07.130Z,1.92
2023-02-01T10:46:10.201Z,2.03
2023-02-01T10:47:14.380Z,1.60
2023-02-01T10:48:26.057Z,1.45
2023-02-01T10:49:32.298Z,1.92
2023-02-01T10:50:37.612Z,1.88
2023-02-01T10:51:45.467Z,2.10
2023-02-01T10:52:50.302Z,2.10
2023-02-01T10:54:03.092Z,2.30
2023-02-01T10:55:24.978Z,2.03
2023-02-01T10:56:29.823Z,2.38
2023-02-01T10:57:33.246Z,2.05
2023-02-01T10:58:38.197Z,2.17
2023-02-01T10:59:47.895Z,2.22
2023-02-01T11:00:55.541Z,2.47
2023-02-01T11:02:02.099Z,2.60
2023-02-01T11:03:21.360Z,2.28
2023-02-01T11:04:33.935Z,2.30
2023-02-01T11:05:47.941Z,2.53
2023-02-01T11:06:53.865Z,2.72
2023-02-01T11:07:57.597Z,2.65
2023-02-01T11:09:08.895Z,2.53
2023-02-01T11:10:32.691Z,2.85
2023-02-01T11:11:36.717Z,2.15
2023-02-01T11:12:40.796Z,3.15
2023-02-01T11:13:49.913Z,2.25
2023-02-01T11:14:59.912Z,2.17
2023-02-01T11:16:04.436Z,2.60
2023-02-01T11:17:26.912Z,2.13
2023-02-01T11:18:31.420Z,2.33
2023-02-01T11:19:36.391Z,1.83
2023-02-01T11:20:41.090Z,1.75
2023-02-01T11:21:51.904Z,1.67
2023-02-01T11:22:56.367Z,1.70
2023-02-01T11:24:03.457Z,1.50
2023-02-01T11:25:11.427Z,1.73
2023-02-01T11:26:16.887Z,1.60
2023-02-01T11:27:28.248Z,1.65
2023-02-01T11:28:40.900Z,1.33
2023-02-01T11:29:46.317Z,1.20
2023-02-01T11:30:50.151Z,1.55
2023-02-01T11:32:00.652Z,1.38
2023-02-01T11:33:06.478Z,1.48
2023-02-01T11:34:17.892Z,1.05
2023-02-01T11:35:23.001Z,1.05
2023-02-01T11:36:29.381Z,1.13
2023-02-01T11:37:34.471Z,1.08
2023-02-01T11:38:37.095Z,1.00
2023-02-01T11:39:46.941Z,0.90
2023-02-01T11:40:50.758Z,1.17
2023-02-01T11:42:04.573Z,0.75
2023-02-01T11:43:10.029Z,0.93
2023-02-01T11:44:23.503Z,1.17
2023-02-01T11:45:36.892Z,1.00
2023-02-01T11:46:40.361Z,0.93
2023-02-01T11:47:43.968Z,0.95
2023-02-01T11:48:47.322Z,0.93
2023-02-01T11:49:56.954Z,1.00
2023-02-01T11:51:07.445Z,1.13
2023-02-01T11:52:15.091Z,1.25
2023-02-01T11:53:22.489Z,1.80
2023-02-01T11:54:32.500Z,1.05
2023-02-01T11:55:50.957Z,1.25
2023-02-01T11:57:00.568Z,1.30
2023-02-01T11:58:09.201Z,0.90
2023-02-01T11:59:21.831Z,1.17
2023-02-01T12:00:47.040Z,1.30
2023-02-01T12:02:00.258Z,1.00
2023-02-01T12:03:20.672Z,1.20
2023-02-01T12:04:42.921Z,1.27
2023-02-01T12:06:03.974Z,1.33
2023-02-01T12:07:17.665Z,1.40
2023-02-01T12:08:39.908Z,1.23
2023-02-01T12:09:52.622Z,1.33
2023-02-01T12:11:02.211Z,1.00
2023-02-01T12:12:15.979Z,1.50
2023-02-01T12:13:23.907Z,1.67
2023-02-01T12:14:49.062Z,1.35
2023-02-01T12:15:57.316Z,1.10
2023-02-01T12:17:08.407Z,1.27
2023-02-01T12:18:26.977Z,1.65
2023-02-01T12:19:35.709Z,1.83
2023-02-01T12:20:58.823Z,1.60
2023-02-01T12:22:10.653Z,1.33
2023-02-01T12:23:30.069Z,1.52
2023-02-01T12:24:41.440Z,1.13
2023-02-01T12:25:59.863Z,1.50
2023-02-01T12:27:10.395Z,1.33
2023-02-01T12:28:26.090Z,1.35
2023-02-01T12:29:36.561Z,1.15
2023-02-01T12:30:50.122Z,1.45
2023-02-01T12:32:00.624Z,1.48
2023-02-01T12:33:08.181Z,1.95
2023-02-01T12:34:27.951Z,1.50
2023-02-01T12:35:50.052Z,1.77
2023-02-01T12:36:57.189Z,1.25
2023-02-01T12:38:06.713Z,1.58
2023-02-01T12:39:19.013Z,1.17
2023-02-01T12:40:35.054Z,1.38
2023-02-01T12:41:48.775Z,1.30
2023-02-01T12:42:57.413Z,1.75
2023-02-01T12:44:01.307Z,1.30
2023-02-01T12:45:09.922Z,1.88
2023-02-01T12:46:21.890Z,2.40
2023-02-01T12:47:27.072Z,2.63
2023-02-01T12:48:33.098Z,3.15
2023-02-01T12:49:43.427Z,1.75
2023-02-01T12:50:54.891Z,2.72
2023-02-01T12:52:09.012Z,2.45
2023-02-01T12:53:21.582Z,3.78
2023-02-01T12:54:42.024Z,1.58
2023-02-01T12:55:57.946Z,1.70
2023-02-01T12:57:04.067Z,1.65
2023-02-01T12:58:14.093Z,2.75
2023-02-01T12:59:22.174Z,2.03
2023-02-01T13:00:30.277Z,2.22
2023-02-01T13:02:00.054Z,2.38
2023-02-01T13:03:29.539Z,1.90
2023-02-01T13:04:36.187Z,1.85
2023-02-01T13:06:00.006Z,1.83
2023-02-01T13:07:18.929Z,1.88
2023-02-01T13:08:25.575Z,2.00
2023-02-01T13:09:32.893Z,1.80
2023-02-01T13:10:38.280Z,2.20
2023-02-01T13:11:42.376Z,1.88
2023-02-01T13:12:54.912Z,2.38
2023-02-01T13:14:12.083Z,2.42
2023-02-01T13:15:17.667Z,2.70
2023-02-01T13:16:28.295Z,2.63
2023-02-01T13:17:33.599Z,2.97
2023-02-01T13:18:37.942Z,3.50
2023-02-01T13:19:53.958Z,2.88
2023-02-01T13:20:59.621Z,2.92
2023-02-01T13:22:08.720Z,3.15
2023-02-01T13:23:15.573Z,4.45
2023-02-01T13:24:27.885Z,2.97
2023-02-01T13:25:44.065Z,3.30
2023-02-01T13:26:54.986Z,2.85
2023-02-01T13:28:00.317Z,2.50
2023-02-01T13:29:05.741Z,2.88
2023-02-01T13:30:13.784Z,2.92
2023-02-01T13:31:33.015Z,2.78
2023-02-01T13:33:50.271Z,2.80
2023-02-01T13:34:32.708Z,3.10
2023-02-01T13:35:54.952Z,3.13
2023-02-01T13:37:11.256Z,3.22
2023-02-01T13:38:30.682Z,2.83
2023-02-01T13:39:48.834Z,2.70
2023-02-01T13:41:02.554Z,3.42
2023-02-01T13:42:08.115Z,3.92
2023-02-01T13:43:21.927Z,4.53
2023-02-01T13:44:29.759Z,2.72
2023-02-01T13:45:35.402Z,3.33
2023-02-01T13:46:43.254Z,3.80
2023-02-01T13:47:56.947Z,3.08
2023-02-01T13:49:01.531Z,3.67
2023-02-01T13:50:06.609Z,3.30
2023-02-01T13:51:10.630Z,3.53
2023-02-01T13:52:26.839Z,3.30
2023-02-01T13:53:37.951Z,3.63
2023-02-01T13:54:41.912Z,2.95
2023-02-01T13:55:47.005Z,3.53
2023-02-01T13:56:51.145Z,3.08
2023-02-01T13:58:01.657Z,3.38
2023-02-01T13:59:31.931Z,5.00
2023-02-01T14:00:37.297Z,4.53
2023-02-01T14:01:41.316Z,6.30
2023-02-01T14:03:13.023Z,8.20
2023-02-01T14:04:41.985Z,4.68
2023-02-01T14:06:09.455Z,5.03
2023-02-01T14:07:20.181Z,4.88
2023-02-01T14:08:31.973Z,13.05
2023-02-01T14:09:38.169Z,8.38
2023-02-01T14:10:55.404Z,2.65
2023-02-01T14:12:00.457Z,3.30
2023-02-01T14:13:06.271Z,12.13
2023-02-01T14:14:36.955Z,2.90
2023-02-01T14:15:40.464Z,3.38
2023-02-01T14:16:43.185Z,2.63
2023-02-01T14:17:46.972Z,3.60
2023-02-01T14:19:07.972Z,4.50
2023-02-01T14:20:30.053Z,3.20
2023-02-01T14:21:34.610Z,3.33
2023-02-01T14:22:37.129Z,3.75
2023-02-01T14:23:49.094Z,2.63
2023-02-01T14:24:55.346Z,2.60
2023-02-01T14:26:06.798Z,3.13
2023-02-01T14:27:29.963Z,3.85
2023-02-01T14:28:33.855Z,2.80
2023-02-01T14:29:38.685Z,3.20
2023-02-01T14:30:43.429Z,3.25
2023-02-01T14:31:50.926Z,2.83
2023-02-01T14:33:00.931Z,2.88
2023-02-01T14:34:05.029Z,3.08
2023-02-01T14:35:15.942Z,2.80
2023-02-01T14:36:19.779Z,2.60
2023-02-01T14:37:27.838Z,2.65
2023-02-01T14:38:33.392Z,2.03
2023-02-01T14:39:40.226Z,2.85
2023-02-01T14:40:49.932Z,2.20
2023-02-01T14:41:54.840Z,2.60
2023-02-01T14:43:06.980Z,3.28
2023-02-01T14:44:24.092Z,2.35
2023-02-01T14:45:53.124Z,2.78
2023-02-01T14:47:15.315Z,2.30
2023-02-01T14:48:37.530Z,2.50
2023-02-01T14:49:44.595Z,2.30
2023-02-01T14:50:56.059Z,2.20
2023-02-01T14:51:58.888Z,2.17
2023-02-01T14:53:09.789Z,2.15
2023-02-01T14:54:15.639Z,2.53
2023-02-01T14:55:20.790Z,2.20
2023-02-01T14:56:29.911Z,2.97
2023-02-01T14:57:33.488Z,2.35
2023-02-01T14:58:42.712Z,2.40
2023-02-01T14:59:46.788Z,2.88
2023-02-01T15:00:58.941Z,2.85
2023-02-01T15:02:03.823Z,2.78
2023-02-01T15:03:34.331Z,3.60
2023-02-01T15:04:44.002Z,3.20
2023-02-01T15:06:12.975Z,4.95
2023-02-01T15:07:23.962Z,3.75
2023-02-01T15:08:29.603Z,4.78
2023-02-01T15:09:35.389Z,2.85
2023-02-01T15:10:42.902Z,3.45
2023-02-01T15:12:07.130Z,3.25